This is the latest recevied weather packets stored in our database for station/object KE5OYL. If no packets are shown the sender has not sent any weather packets the latest 10 day(s).
| Time | Temp. | Humidity | Pressure | Rain* | Wind** | Luminosity | Snow |
|---|---|---|---|---|---|---|---|
| 1777504287 | 17.22° C | 80% | 1013.5 hPa | 0 mm | - | 54 W/m² | - |
| 1777503983 | 17.78° C | 80% | 1013.6 hPa | 0 mm | - | 50 W/m² | - |
| 1777503680 | 17.22° C | 81% | 1013.4 hPa | 0 mm | - | 86 W/m² | - |
| 1777503377 | 17.78° C | 81% | 1013.9 hPa | 0 mm | - | 55 W/m² | - |
| 1777503073 | 17.78° C | 81% | 1013.8 hPa | 0 mm | - | 45 W/m² | - |
| 1777502770 | 17.78° C | 81% | 1013.7 hPa | 0 mm | - | 58 W/m² | - |
| 1777502467 | 17.78° C | 81% | 1013.9 hPa | 0 mm | - | 52 W/m² | - |
| 1777502164 | 17.78° C | 80% | 1014.1 hPa | 0 mm | - | 42 W/m² | - |
| 1777501862 | 17.78° C | 79% | 1014.1 hPa | 0 mm | - | 48 W/m² | - |
| 1777501558 | 17.78° C | 79% | 1013.8 hPa | 0 mm | - | 99 W/m² | - |
| 1777501255 | 17.78° C | 79% | 1013.8 hPa | 0 mm | - | 69 W/m² | - |
| 1777500954 | 17.78° C | 79% | 1014.2 hPa | 0 mm | - | 50 W/m² | - |
| 1777500651 | 17.78° C | 79% | 1013.7 hPa | 0 mm | - | 80 W/m² | - |
| 1777500347 | 17.78° C | 79% | 1013.4 hPa | 0 mm | - | 93 W/m² | - |
| 1777500043 | 17.78° C | 79% | 1013.4 hPa | 0 mm | - | 106 W/m² | - |
| 1777499740 | 18.33° C | 79% | 1013.3 hPa | 0 mm | - | 124 W/m² | - |
| 1777499437 | 17.78° C | 79% | 1013.3 hPa | 0 mm | - | 136 W/m² | - |
| 1777499135 | 18.33° C | 79% | 1013.7 hPa | 0 mm | - | 111 W/m² | - |
| 1777498831 | 17.78° C | 79% | 1013.3 hPa | 0 mm | - | 146 W/m² | - |
| 1777498528 | 17.78° C | 78% | 1013.2 hPa | 0 mm | - | 132 W/m² | - |
| 1777498224 | 17.78° C | 79% | 1013.1 hPa | 0 mm | - | 153 W/m² | - |
| 1777497923 | 17.78° C | 79% | 1013.2 hPa | 0 mm | - | 203 W/m² | - |
| 1777497618 | 17.78° C | 80% | 1013.2 hPa | 0 mm | - | 132 W/m² | - |
| 1777497315 | 17.78° C | 80% | 1013.5 hPa | 0 mm | - | 149 W/m² | - |
| 1777497011 | 17.78° C | 80% | 1013.6 hPa | 0 mm | - | 170 W/m² | - |
* Rain latest hour (hover to see other rain measurements)
** Current wind speed in m/s (hover to see current wind gust speed)